sensor_id;sensor_type;location;lat;lon;timestamp;P1;durP1;ratioP1;P2;durP2;ratioP2
25758;SDS011;13604;52.496;13.456;2022-12-18T00:03:43;70.47;;;21.20;;
25758;SDS011;13604;52.496;13.456;2022-12-18T00:06:08;85.40;;;22.60;;
25758;SDS011;13604;52.496;13.456;2022-12-18T00:08:34;82.30;;;20.95;;
25758;SDS011;13604;52.496;13.456;2022-12-18T00:11:03;81.38;;;23.60;;
25758;SDS011;13604;52.496;13.456;2022-12-18T00:13:28;82.03;;;22.33;;
25758;SDS011;13604;52.496;13.456;2022-12-18T00:15:54;76.77;;;22.97;;
25758;SDS011;13604;52.496;13.456;2022-12-18T00:18:19;92.73;;;24.73;;
25758;SDS011;13604;52.496;13.456;2022-12-18T00:20:44;100.17;;;25.27;;
25758;SDS011;13604;52.496;13.456;2022-12-18T00:23:09;87.40;;;24.13;;
25758;SDS011;13604;52.496;13.456;2022-12-18T00:25:35;89.80;;;23.55;;
25758;SDS011;13604;52.496;13.456;2022-12-18T00:28:00;83.90;;;24.38;;
25758;SDS011;13604;52.496;13.456;2022-12-18T00:30:26;105.68;;;24.25;;
25758;SDS011;13604;52.496;13.456;2022-12-18T00:32:51;86.80;;;23.77;;
25758;SDS011;13604;52.496;13.456;2022-12-18T00:35:16;98.67;;;24.67;;
25758;SDS011;13604;52.496;13.456;2022-12-18T00:37:41;102.23;;;24.57;;
25758;SDS011;13604;52.496;13.456;2022-12-18T00:40:06;106.53;;;24.03;;
25758;SDS011;13604;52.496;13.456;2022-12-18T00:42:38;95.78;;;21.40;;
25758;SDS011;13604;52.496;13.456;2022-12-18T00:45:25;86.78;;;20.67;;
25758;SDS011;13604;52.496;13.456;2022-12-18T00:47:50;91.45;;;23.38;;
25758;SDS011;13604;52.496;13.456;2022-12-18T00:50:16;80.22;;;22.58;;
25758;SDS011;13604;52.496;13.456;2022-12-18T00:52:41;106.72;;;22.75;;
25758;SDS011;13604;52.496;13.456;2022-12-18T00:55:07;75.43;;;20.77;;
25758;SDS011;13604;52.496;13.456;2022-12-18T00:57:33;92.53;;;23.92;;
25758;SDS011;13604;52.496;13.456;2022-12-18T00:59:58;90.93;;;25.08;;
25758;SDS011;13604;52.496;13.456;2022-12-18T01:02:23;96.40;;;24.37;;
25758;SDS011;13604;52.496;13.456;2022-12-18T01:04:48;99.27;;;26.93;;
25758;SDS011;13604;52.496;13.456;2022-12-18T01:07:13;101.27;;;24.47;;
25758;SDS011;13604;52.496;13.456;2022-12-18T01:09:38;104.23;;;25.63;;
25758;SDS011;13604;52.496;13.456;2022-12-18T01:12:04;123.37;;;24.77;;
25758;SDS011;13604;52.496;13.456;2022-12-18T01:14:29;83.30;;;23.13;;
25758;SDS011;13604;52.496;13.456;2022-12-18T01:16:54;91.57;;;22.57;;
25758;SDS011;13604;52.496;13.456;2022-12-18T01:19:19;87.10;;;21.73;;
25758;SDS011;13604;52.496;13.456;2022-12-18T01:21:44;123.20;;;22.30;;
25758;SDS011;13604;52.496;13.456;2022-12-18T01:24:10;95.20;;;22.67;;
25758;SDS011;13604;52.496;13.456;2022-12-18T01:26:36;129.77;;;23.83;;
25758;SDS011;13604;52.496;13.456;2022-12-18T01:29:01;106.33;;;25.23;;
25758;SDS011;13604;52.496;13.456;2022-12-18T01:31:28;110.68;;;26.80;;
25758;SDS011;13604;52.496;13.456;2022-12-18T01:33:53;120.07;;;26.25;;
25758;SDS011;13604;52.496;13.456;2022-12-18T01:36:19;100.05;;;24.60;;
25758;SDS011;13604;52.496;13.456;2022-12-18T01:38:45;173.98;;;26.95;;
25758;SDS011;13604;52.496;13.456;2022-12-18T01:41:11;116.72;;;26.98;;
25758;SDS011;13604;52.496;13.456;2022-12-18T01:46:07;129.27;;;29.05;;
25758;SDS011;13604;52.496;13.456;2022-12-18T01:48:32;136.65;;;29.00;;
25758;SDS011;13604;52.496;13.456;2022-12-18T01:51:01;178.32;;;30.77;;
25758;SDS011;13604;52.496;13.456;2022-12-18T01:53:26;149.20;;;30.23;;
25758;SDS011;13604;52.496;13.456;2022-12-18T01:55:52;159.40;;;29.83;;
25758;SDS011;13604;52.496;13.456;2022-12-18T01:58:18;142.43;;;31.17;;
25758;SDS011;13604;52.496;13.456;2022-12-18T02:00:44;152.55;;;30.55;;
25758;SDS011;13604;52.496;13.456;2022-12-18T02:03:09;181.27;;;34.10;;
25758;SDS011;13604;52.496;13.456;2022-12-18T02:08:20;157.13;;;34.08;;
25758;SDS011;13604;52.496;13.456;2022-12-18T02:13:27;177.00;;;38.13;;
25758;SDS011;13604;52.496;13.456;2022-12-18T02:15:59;144.65;;;32.35;;
25758;SDS011;13604;52.496;13.456;2022-12-18T02:18:31;161.98;;;35.40;;
25758;SDS011;13604;52.496;13.456;2022-12-18T02:23:47;158.32;;;33.53;;
25758;SDS011;13604;52.496;13.456;2022-12-18T02:28:41;163.18;;;37.95;;
25758;SDS011;13604;52.496;13.456;2022-12-18T02:31:07;154.60;;;34.50;;
25758;SDS011;13604;52.496;13.456;2022-12-18T02:33:34;144.75;;;33.13;;
25758;SDS011;13604;52.496;13.456;2022-12-18T02:36:00;165.45;;;36.28;;
25758;SDS011;13604;52.496;13.456;2022-12-18T02:38:26;171.32;;;34.63;;
25758;SDS011;13604;52.496;13.456;2022-12-18T02:40:53;151.43;;;35.03;;
25758;SDS011;13604;52.496;13.456;2022-12-18T02:43:18;144.00;;;32.20;;
25758;SDS011;13604;52.496;13.456;2022-12-18T02:45:48;198.82;;;38.65;;
25758;SDS011;13604;52.496;13.456;2022-12-18T02:48:14;142.05;;;34.55;;
25758;SDS011;13604;52.496;13.456;2022-12-18T02:50:48;140.00;;;34.55;;
25758;SDS011;13604;52.496;13.456;2022-12-18T02:53:32;144.45;;;32.08;;
25758;SDS011;13604;52.496;13.456;2022-12-18T02:56:09;130.27;;;30.73;;
25758;SDS011;13604;52.496;13.456;2022-12-18T03:03:56;131.73;;;30.23;;
25758;SDS011;13604;52.496;13.456;2022-12-18T03:06:33;131.35;;;30.65;;
25758;SDS011;13604;52.496;13.456;2022-12-18T03:09:07;124.18;;;29.60;;
25758;SDS011;13604;52.496;13.456;2022-12-18T03:11:34;117.25;;;29.08;;
25758;SDS011;13604;52.496;13.456;2022-12-18T03:14:20;117.07;;;29.77;;
25758;SDS011;13604;52.496;13.456;2022-12-18T03:16:46;129.65;;;30.92;;
25758;SDS011;13604;52.496;13.456;2022-12-18T03:19:14;120.70;;;28.88;;
25758;SDS011;13604;52.496;13.456;2022-12-18T03:21:42;123.07;;;27.65;;
25758;SDS011;13604;52.496;13.456;2022-12-18T03:24:08;107.93;;;27.45;;
25758;SDS011;13604;52.496;13.456;2022-12-18T03:26:35;105.80;;;25.73;;
25758;SDS011;13604;52.496;13.456;2022-12-18T03:29:03;151.43;;;27.23;;
25758;SDS011;13604;52.496;13.456;2022-12-18T03:31:29;107.80;;;25.05;;
25758;SDS011;13604;52.496;13.456;2022-12-18T03:33:57;109.85;;;26.08;;
25758;SDS011;13604;52.496;13.456;2022-12-18T03:36:24;110.97;;;27.85;;
25758;SDS011;13604;52.496;13.456;2022-12-18T03:38:49;122.22;;;28.23;;
25758;SDS011;13604;52.496;13.456;2022-12-18T03:41:16;104.70;;;26.33;;
25758;SDS011;13604;52.496;13.456;2022-12-18T03:43:47;124.30;;;28.48;;
25758;SDS011;13604;52.496;13.456;2022-12-18T03:46:21;108.80;;;25.48;;
25758;SDS011;13604;52.496;13.456;2022-12-18T03:48:56;104.20;;;25.98;;
25758;SDS011;13604;52.496;13.456;2022-12-18T03:51:26;105.35;;;25.45;;
25758;SDS011;13604;52.496;13.456;2022-12-18T03:53:55;105.10;;;26.60;;
25758;SDS011;13604;52.496;13.456;2022-12-18T03:56:21;115.70;;;28.45;;
25758;SDS011;13604;52.496;13.456;2022-12-18T03:58:47;118.28;;;29.27;;
25758;SDS011;13604;52.496;13.456;2022-12-18T04:01:13;114.22;;;26.35;;
25758;SDS011;13604;52.496;13.456;2022-12-18T04:03:39;120.63;;;27.05;;
25758;SDS011;13604;52.496;13.456;2022-12-18T04:06:06;103.45;;;26.42;;
25758;SDS011;13604;52.496;13.456;2022-12-18T04:08:31;108.80;;;27.30;;
25758;SDS011;13604;52.496;13.456;2022-12-18T04:10:57;104.60;;;25.52;;
25758;SDS011;13604;52.496;13.456;2022-12-18T04:13:23;102.55;;;25.55;;
25758;SDS011;13604;52.496;13.456;2022-12-18T04:15:48;110.32;;;26.50;;
25758;SDS011;13604;52.496;13.456;2022-12-18T04:18:13;99.30;;;25.17;;
25758;SDS011;13604;52.496;13.456;2022-12-18T04:20:38;103.13;;;25.67;;
25758;SDS011;13604;52.496;13.456;2022-12-18T04:23:03;104.43;;;26.97;;
25758;SDS011;13604;52.496;13.456;2022-12-18T04:25:28;92.97;;;24.10;;
25758;SDS011;13604;52.496;13.456;2022-12-18T04:27:54;97.43;;;23.97;;
25758;SDS011;13604;52.496;13.456;2022-12-18T04:30:19;98.23;;;23.40;;
25758;SDS011;13604;52.496;13.456;2022-12-18T04:32:44;123.53;;;26.00;;
25758;SDS011;13604;52.496;13.456;2022-12-18T04:35:09;101.73;;;23.57;;
25758;SDS011;13604;52.496;13.456;2022-12-18T04:37:36;109.82;;;26.10;;
25758;SDS011;13604;52.496;13.456;2022-12-18T04:40:01;106.73;;;24.80;;
25758;SDS011;13604;52.496;13.456;2022-12-18T04:42:26;92.50;;;24.77;;
25758;SDS011;13604;52.496;13.456;2022-12-18T04:44:51;117.53;;;24.70;;
25758;SDS011;13604;52.496;13.456;2022-12-18T04:47:16;88.53;;;22.97;;
25758;SDS011;13604;52.496;13.456;2022-12-18T04:49:41;97.57;;;23.83;;
25758;SDS011;13604;52.496;13.456;2022-12-18T04:52:07;90.03;;;23.60;;
25758;SDS011;13604;52.496;13.456;2022-12-18T04:54:32;90.00;;;23.60;;
25758;SDS011;13604;52.496;13.456;2022-12-18T04:56:57;99.72;;;23.77;;
25758;SDS011;13604;52.496;13.456;2022-12-18T04:59:22;94.20;;;22.83;;
25758;SDS011;13604;52.496;13.456;2022-12-18T05:01:47;93.20;;;23.27;;
25758;SDS011;13604;52.496;13.456;2022-12-18T05:04:12;100.77;;;24.63;;
25758;SDS011;13604;52.496;13.456;2022-12-18T05:06:38;102.27;;;22.40;;
25758;SDS011;13604;52.496;13.456;2022-12-18T05:09:03;110.80;;;27.00;;
25758;SDS011;13604;52.496;13.456;2022-12-18T05:11:28;101.93;;;25.23;;
25758;SDS011;13604;52.496;13.456;2022-12-18T05:13:56;106.40;;;24.87;;
25758;SDS011;13604;52.496;13.456;2022-12-18T05:16:21;100.38;;;23.70;;
25758;SDS011;13604;52.496;13.456;2022-12-18T05:18:46;99.37;;;25.63;;
25758;SDS011;13604;52.496;13.456;2022-12-18T05:21:12;107.20;;;24.80;;
25758;SDS011;13604;52.496;13.456;2022-12-18T05:23:37;114.30;;;27.77;;
25758;SDS011;13604;52.496;13.456;2022-12-18T05:26:03;107.00;;;26.90;;
25758;SDS011;13604;52.496;13.456;2022-12-18T05:28:29;124.13;;;28.25;;
25758;SDS011;13604;52.496;13.456;2022-12-18T05:30:55;107.72;;;26.08;;
25758;SDS011;13604;52.496;13.456;2022-12-18T05:33:21;116.55;;;25.33;;
25758;SDS011;13604;52.496;13.456;2022-12-18T05:35:50;119.68;;;27.23;;
25758;SDS011;13604;52.496;13.456;2022-12-18T05:38:16;122.15;;;28.48;;
25758;SDS011;13604;52.496;13.456;2022-12-18T05:40:42;133.23;;;30.13;;
25758;SDS011;13604;52.496;13.456;2022-12-18T05:43:07;127.10;;;28.13;;
25758;SDS011;13604;52.496;13.456;2022-12-18T05:45:33;173.33;;;27.07;;
25758;SDS011;13604;52.496;13.456;2022-12-18T05:48:01;148.43;;;29.08;;
25758;SDS011;13604;52.496;13.456;2022-12-18T05:50:26;159.30;;;29.60;;
25758;SDS011;13604;52.496;13.456;2022-12-18T05:52:51;125.83;;;30.63;;
25758;SDS011;13604;52.496;13.456;2022-12-18T05:55:16;133.00;;;28.20;;
25758;SDS011;13604;52.496;13.456;2022-12-18T05:57:41;141.90;;;31.53;;
25758;SDS011;13604;52.496;13.456;2022-12-18T06:00:07;133.77;;;30.13;;
25758;SDS011;13604;52.496;13.456;2022-12-18T06:02:32;151.27;;;34.03;;
25758;SDS011;13604;52.496;13.456;2022-12-18T06:04:57;134.57;;;31.77;;
25758;SDS011;13604;52.496;13.456;2022-12-18T06:07:23;128.60;;;29.47;;
25758;SDS011;13604;52.496;13.456;2022-12-18T06:09:48;138.43;;;29.95;;
25758;SDS011;13604;52.496;13.456;2022-12-18T06:12:13;136.73;;;29.87;;
25758;SDS011;13604;52.496;13.456;2022-12-18T06:14:41;120.97;;;30.42;;
25758;SDS011;13604;52.496;13.456;2022-12-18T06:17:06;131.20;;;28.77;;
25758;SDS011;13604;52.496;13.456;2022-12-18T06:19:31;153.00;;;34.60;;
25758;SDS011;13604;52.496;13.456;2022-12-18T06:21:57;139.35;;;30.02;;
25758;SDS011;13604;52.496;13.456;2022-12-18T06:24:23;140.30;;;32.75;;
25758;SDS011;13604;52.496;13.456;2022-12-18T06:26:49;127.32;;;28.92;;
25758;SDS011;13604;52.496;13.456;2022-12-18T06:29:14;126.53;;;31.63;;
25758;SDS011;13604;52.496;13.456;2022-12-18T06:31:39;120.40;;;27.37;;
25758;SDS011;13604;52.496;13.456;2022-12-18T06:34:04;107.10;;;27.97;;
25758;SDS011;13604;52.496;13.456;2022-12-18T06:36:30;135.20;;;30.00;;
25758;SDS011;13604;52.496;13.456;2022-12-18T06:38:55;113.20;;;27.60;;
25758;SDS011;13604;52.496;13.456;2022-12-18T06:41:21;124.82;;;30.30;;
25758;SDS011;13604;52.496;13.456;2022-12-18T06:43:46;116.07;;;27.92;;
25758;SDS011;13604;52.496;13.456;2022-12-18T06:46:11;123.20;;;27.80;;
25758;SDS011;13604;52.496;13.456;2022-12-18T06:48:37;131.20;;;29.58;;
25758;SDS011;13604;52.496;13.456;2022-12-18T06:51:02;112.07;;;28.00;;
25758;SDS011;13604;52.496;13.456;2022-12-18T06:53:28;113.95;;;27.50;;
25758;SDS011;13604;52.496;13.456;2022-12-18T06:55:59;125.97;;;29.63;;
25758;SDS011;13604;52.496;13.456;2022-12-18T06:58:24;125.35;;;30.10;;
25758;SDS011;13604;52.496;13.456;2022-12-18T07:00:49;136.57;;;27.20;;
25758;SDS011;13604;52.496;13.456;2022-12-18T07:03:14;113.73;;;27.90;;
25758;SDS011;13604;52.496;13.456;2022-12-18T07:05:40;125.50;;;26.90;;
25758;SDS011;13604;52.496;13.456;2022-12-18T07:08:05;109.85;;;26.80;;
25758;SDS011;13604;52.496;13.456;2022-12-18T07:10:31;119.25;;;27.88;;
25758;SDS011;13604;52.496;13.456;2022-12-18T07:12:56;121.40;;;27.97;;
25758;SDS011;13604;52.496;13.456;2022-12-18T07:15:21;116.00;;;27.37;;
25758;SDS011;13604;52.496;13.456;2022-12-18T07:17:46;113.13;;;26.77;;
25758;SDS011;13604;52.496;13.456;2022-12-18T07:20:11;134.13;;;28.40;;
25758;SDS011;13604;52.496;13.456;2022-12-18T07:22:37;111.50;;;30.83;;
25758;SDS011;13604;52.496;13.456;2022-12-18T07:25:02;126.63;;;29.57;;
25758;SDS011;13604;52.496;13.456;2022-12-18T07:27:27;117.90;;;26.80;;
25758;SDS011;13604;52.496;13.456;2022-12-18T07:29:52;120.53;;;27.43;;
25758;SDS011;13604;52.496;13.456;2022-12-18T07:32:17;104.67;;;28.33;;
25758;SDS011;13604;52.496;13.456;2022-12-18T07:34:43;130.13;;;31.30;;
25758;SDS011;13604;52.496;13.456;2022-12-18T07:37:08;125.97;;;29.60;;
25758;SDS011;13604;52.496;13.456;2022-12-18T07:39:33;138.17;;;29.67;;
25758;SDS011;13604;52.496;13.456;2022-12-18T07:41:58;134.07;;;29.23;;
25758;SDS011;13604;52.496;13.456;2022-12-18T07:44:42;137.95;;;28.63;;
25758;SDS011;13604;52.496;13.456;2022-12-18T07:47:07;129.63;;;29.67;;
25758;SDS011;13604;52.496;13.456;2022-12-18T07:49:32;114.10;;;27.70;;
25758;SDS011;13604;52.496;13.456;2022-12-18T07:51:57;116.00;;;28.80;;
25758;SDS011;13604;52.496;13.456;2022-12-18T07:54:23;130.38;;;28.52;;
25758;SDS011;13604;52.496;13.456;2022-12-18T07:56:48;119.68;;;29.27;;
25758;SDS011;13604;52.496;13.456;2022-12-18T07:59:13;122.23;;;30.37;;
25758;SDS011;13604;52.496;13.456;2022-12-18T08:01:39;116.60;;;29.13;;
25758;SDS011;13604;52.496;13.456;2022-12-18T08:04:04;107.18;;;28.42;;
25758;SDS011;13604;52.496;13.456;2022-12-18T08:06:30;115.18;;;27.75;;
25758;SDS011;13604;52.496;13.456;2022-12-18T08:08:55;103.72;;;25.50;;
25758;SDS011;13604;52.496;13.456;2022-12-18T08:11:21;97.63;;;23.90;;
25758;SDS011;13604;52.496;13.456;2022-12-18T08:13:46;91.68;;;25.45;;
25758;SDS011;13604;52.496;13.456;2022-12-18T08:16:12;102.33;;;26.23;;
25758;SDS011;13604;52.496;13.456;2022-12-18T08:18:37;93.88;;;24.77;;
25758;SDS011;13604;52.496;13.456;2022-12-18T08:23:37;96.28;;;24.58;;
25758;SDS011;13604;52.496;13.456;2022-12-18T08:26:02;96.70;;;27.35;;
25758;SDS011;13604;52.496;13.456;2022-12-18T08:28:27;98.60;;;26.50;;
25758;SDS011;13604;52.496;13.456;2022-12-18T08:30:52;103.00;;;27.57;;
25758;SDS011;13604;52.496;13.456;2022-12-18T08:33:17;87.50;;;25.55;;
25758;SDS011;13604;52.496;13.456;2022-12-18T08:35:43;86.70;;;24.88;;
25758;SDS011;13604;52.496;13.456;2022-12-18T08:38:08;91.53;;;23.60;;
25758;SDS011;13604;52.496;13.456;2022-12-18T08:40:33;98.88;;;26.35;;
25758;SDS011;13604;52.496;13.456;2022-12-18T08:42:58;84.83;;;24.23;;
25758;SDS011;13604;52.496;13.456;2022-12-18T08:48:18;81.28;;;22.25;;
25758;SDS011;13604;52.496;13.456;2022-12-18T08:50:43;78.80;;;22.03;;
25758;SDS011;13604;52.496;13.456;2022-12-18T08:53:08;81.80;;;23.60;;
25758;SDS011;13604;52.496;13.456;2022-12-18T08:55:34;101.25;;;24.80;;
25758;SDS011;13604;52.496;13.456;2022-12-18T08:57:59;94.93;;;25.38;;
25758;SDS011;13604;52.496;13.456;2022-12-18T09:00:24;105.50;;;26.83;;
25758;SDS011;13604;52.496;13.456;2022-12-18T09:02:50;96.43;;;26.77;;
25758;SDS011;13604;52.496;13.456;2022-12-18T09:05:15;76.43;;;22.37;;
25758;SDS011;13604;52.496;13.456;2022-12-18T09:07:40;99.80;;;24.67;;
25758;SDS011;13604;52.496;13.456;2022-12-18T09:10:05;91.73;;;24.20;;
25758;SDS011;13604;52.496;13.456;2022-12-18T09:12:30;85.95;;;23.20;;
25758;SDS011;13604;52.496;13.456;2022-12-18T09:14:56;86.75;;;23.80;;
25758;SDS011;13604;52.496;13.456;2022-12-18T09:17:21;86.63;;;23.63;;
25758;SDS011;13604;52.496;13.456;2022-12-18T09:19:47;95.82;;;23.63;;
25758;SDS011;13604;52.496;13.456;2022-12-18T09:22:12;94.70;;;25.15;;
25758;SDS011;13604;52.496;13.456;2022-12-18T09:24:37;98.47;;;26.30;;
25758;SDS011;13604;52.496;13.456;2022-12-18T09:27:02;95.03;;;24.10;;
25758;SDS011;13604;52.496;13.456;2022-12-18T09:29:27;88.17;;;23.93;;
25758;SDS011;13604;52.496;13.456;2022-12-18T09:31:53;100.78;;;24.95;;
25758;SDS011;13604;52.496;13.456;2022-12-18T09:34:18;96.83;;;26.13;;
25758;SDS011;13604;52.496;13.456;2022-12-18T09:36:45;99.78;;;27.02;;
25758;SDS011;13604;52.496;13.456;2022-12-18T09:39:11;93.25;;;25.55;;
25758;SDS011;13604;52.496;13.456;2022-12-18T09:41:39;106.43;;;28.33;;
25758;SDS011;13604;52.496;13.456;2022-12-18T09:44:19;93.78;;;24.02;;
25758;SDS011;13604;52.496;13.456;2022-12-18T09:46:58;86.20;;;23.10;;
25758;SDS011;13604;52.496;13.456;2022-12-18T09:49:27;104.63;;;27.25;;
25758;SDS011;13604;52.496;13.456;2022-12-18T09:51:57;111.22;;;26.58;;
25758;SDS011;13604;52.496;13.456;2022-12-18T09:54:26;103.00;;;26.85;;
25758;SDS011;13604;52.496;13.456;2022-12-18T09:56:51;109.20;;;28.30;;
25758;SDS011;13604;52.496;13.456;2022-12-18T10:01:42;109.30;;;29.13;;
25758;SDS011;13604;52.496;13.456;2022-12-18T10:04:07;100.73;;;27.03;;
25758;SDS011;13604;52.496;13.456;2022-12-18T10:06:39;112.15;;;27.25;;
25758;SDS011;13604;52.496;13.456;2022-12-18T10:09:10;100.85;;;26.30;;
25758;SDS011;13604;52.496;13.456;2022-12-18T10:14:17;102.47;;;26.20;;
25758;SDS011;13604;52.496;13.456;2022-12-18T10:19:23;106.50;;;27.08;;
25758;SDS011;13604;52.496;13.456;2022-12-18T10:24:40;92.95;;;27.23;;
25758;SDS011;13604;52.496;13.456;2022-12-18T10:27:17;86.28;;;25.80;;
25758;SDS011;13604;52.496;13.456;2022-12-18T10:29:43;94.38;;;24.77;;
25758;SDS011;13604;52.496;13.456;2022-12-18T10:32:12;87.57;;;25.42;;
25758;SDS011;13604;52.496;13.456;2022-12-18T10:34:39;96.25;;;26.15;;
25758;SDS011;13604;52.496;13.456;2022-12-18T10:37:05;89.40;;;25.70;;
25758;SDS011;13604;52.496;13.456;2022-12-18T10:39:31;98.32;;;25.85;;
25758;SDS011;13604;52.496;13.456;2022-12-18T10:42:09;102.63;;;26.93;;
25758;SDS011;13604;52.496;13.456;2022-12-18T10:44:34;96.32;;;26.90;;
25758;SDS011;13604;52.496;13.456;2022-12-18T10:47:03;97.78;;;26.02;;
25758;SDS011;13604;52.496;13.456;2022-12-18T10:49:30;100.55;;;27.50;;
25758;SDS011;13604;52.496;13.456;2022-12-18T10:54:40;96.70;;;26.85;;
25758;SDS011;13604;52.496;13.456;2022-12-18T10:57:29;106.93;;;28.13;;
25758;SDS011;13604;52.496;13.456;2022-12-18T10:59:56;102.40;;;28.23;;
25758;SDS011;13604;52.496;13.456;2022-12-18T11:02:35;99.65;;;26.88;;
25758;SDS011;13604;52.496;13.456;2022-12-18T11:05:01;96.50;;;27.52;;
25758;SDS011;13604;52.496;13.456;2022-12-18T11:07:26;96.38;;;27.25;;
25758;SDS011;13604;52.496;13.456;2022-12-18T11:10:14;95.32;;;26.02;;
25758;SDS011;13604;52.496;13.456;2022-12-18T11:12:40;88.38;;;26.63;;
25758;SDS011;13604;52.496;13.456;2022-12-18T11:15:05;85.10;;;25.50;;
25758;SDS011;13604;52.496;13.456;2022-12-18T11:17:31;78.32;;;25.63;;
25758;SDS011;13604;52.496;13.456;2022-12-18T11:19:58;86.68;;;25.52;;
25758;SDS011;13604;52.496;13.456;2022-12-18T11:22:30;85.45;;;26.45;;
25758;SDS011;13604;52.496;13.456;2022-12-18T11:24:57;71.32;;;23.83;;
25758;SDS011;13604;52.496;13.456;2022-12-18T11:27:23;80.72;;;23.05;;
25758;SDS011;13604;52.496;13.456;2022-12-18T11:29:49;90.13;;;25.77;;
25758;SDS011;13604;52.496;13.456;2022-12-18T11:34:47;89.18;;;26.08;;
25758;SDS011;13604;52.496;13.456;2022-12-18T11:37:16;79.88;;;25.88;;
25758;SDS011;13604;52.496;13.456;2022-12-18T11:39:52;93.10;;;27.60;;
25758;SDS011;13604;52.496;13.456;2022-12-18T11:42:38;86.38;;;26.20;;
25758;SDS011;13604;52.496;13.456;2022-12-18T11:45:18;84.93;;;25.63;;
25758;SDS011;13604;52.496;13.456;2022-12-18T11:47:48;82.35;;;27.60;;
25758;SDS011;13604;52.496;13.456;2022-12-18T11:50:17;99.13;;;27.63;;
25758;SDS011;13604;52.496;13.456;2022-12-18T11:52:43;78.53;;;25.92;;
25758;SDS011;13604;52.496;13.456;2022-12-18T11:55:13;102.93;;;27.50;;
25758;SDS011;13604;52.496;13.456;2022-12-18T12:00:12;87.43;;;25.90;;
25758;SDS011;13604;52.496;13.456;2022-12-18T12:02:59;82.60;;;25.80;;
25758;SDS011;13604;52.496;13.456;2022-12-18T12:05:33;89.07;;;25.08;;
25758;SDS011;13604;52.496;13.456;2022-12-18T12:10:30;88.35;;;25.98;;
25758;SDS011;13604;52.496;13.456;2022-12-18T12:13:10;79.18;;;26.02;;
25758;SDS011;13604;52.496;13.456;2022-12-18T12:15:53;93.30;;;28.00;;
25758;SDS011;13604;52.496;13.456;2022-12-18T12:18:25;92.47;;;27.17;;
25758;SDS011;13604;52.496;13.456;2022-12-18T12:23:34;76.70;;;26.25;;
25758;SDS011;13604;52.496;13.456;2022-12-18T12:26:06;89.10;;;26.85;;
25758;SDS011;13604;52.496;13.456;2022-12-18T12:28:52;81.13;;;27.05;;
25758;SDS011;13604;52.496;13.456;2022-12-18T12:31:33;79.55;;;26.13;;
25758;SDS011;13604;52.496;13.456;2022-12-18T12:34:11;86.72;;;25.63;;
25758;SDS011;13604;52.496;13.456;2022-12-18T12:36:57;75.85;;;25.20;;
25758;SDS011;13604;52.496;13.456;2022-12-18T12:39:27;84.68;;;26.65;;
25758;SDS011;13604;52.496;13.456;2022-12-18T12:41:54;92.20;;;25.17;;
25758;SDS011;13604;52.496;13.456;2022-12-18T12:44:49;77.95;;;24.02;;
25758;SDS011;13604;52.496;13.456;2022-12-18T12:47:19;74.95;;;26.17;;
25758;SDS011;13604;52.496;13.456;2022-12-18T12:49:45;83.00;;;26.63;;
25758;SDS011;13604;52.496;13.456;2022-12-18T12:52:14;84.05;;;25.88;;
25758;SDS011;13604;52.496;13.456;2022-12-18T12:54:40;82.63;;;25.65;;
25758;SDS011;13604;52.496;13.456;2022-12-18T12:57:10;84.40;;;26.08;;
25758;SDS011;13604;52.496;13.456;2022-12-18T12:59:44;73.63;;;26.23;;
25758;SDS011;13604;52.496;13.456;2022-12-18T13:02:31;80.20;;;25.92;;
25758;SDS011;13604;52.496;13.456;2022-12-18T13:05:09;83.72;;;24.95;;
25758;SDS011;13604;52.496;13.456;2022-12-18T13:07:41;77.20;;;24.50;;
25758;SDS011;13604;52.496;13.456;2022-12-18T13:13:04;82.82;;;25.05;;
25758;SDS011;13604;52.496;13.456;2022-12-18T13:15:31;77.55;;;25.90;;
25758;SDS011;13604;52.496;13.456;2022-12-18T13:20:37;76.13;;;23.40;;
25758;SDS011;13604;52.496;13.456;2022-12-18T13:25:47;81.55;;;26.10;;
25758;SDS011;13604;52.496;13.456;2022-12-18T13:28:13;69.57;;;25.87;;
25758;SDS011;13604;52.496;13.456;2022-12-18T13:35:39;76.13;;;25.17;;
25758;SDS011;13604;52.496;13.456;2022-12-18T13:38:25;73.13;;;22.95;;
25758;SDS011;13604;52.496;13.456;2022-12-18T13:40:58;66.00;;;24.30;;
25758;SDS011;13604;52.496;13.456;2022-12-18T13:43:30;67.07;;;24.35;;
25758;SDS011;13604;52.496;13.456;2022-12-18T13:46:03;66.35;;;23.77;;
25758;SDS011;13604;52.496;13.456;2022-12-18T13:48:31;68.63;;;23.08;;
25758;SDS011;13604;52.496;13.456;2022-12-18T13:50:58;70.28;;;25.15;;
25758;SDS011;13604;52.496;13.456;2022-12-18T13:53:26;62.33;;;24.95;;
25758;SDS011;13604;52.496;13.456;2022-12-18T13:55:52;69.63;;;25.42;;
25758;SDS011;13604;52.496;13.456;2022-12-18T13:58:18;72.88;;;25.55;;
25758;SDS011;13604;52.496;13.456;2022-12-18T14:00:43;78.50;;;27.73;;
25758;SDS011;13604;52.496;13.456;2022-12-18T14:03:16;77.45;;;27.77;;
25758;SDS011;13604;52.496;13.456;2022-12-18T14:05:43;63.67;;;20.05;;
25758;SDS011;13604;52.496;13.456;2022-12-18T14:08:13;73.47;;;27.52;;
25758;SDS011;13604;52.496;13.456;2022-12-18T14:10:40;79.95;;;28.95;;
25758;SDS011;13604;52.496;13.456;2022-12-18T14:13:06;82.18;;;29.75;;
25758;SDS011;13604;52.496;13.456;2022-12-18T14:15:34;81.30;;;28.33;;
25758;SDS011;13604;52.496;13.456;2022-12-18T14:20:28;72.93;;;27.35;;
25758;SDS011;13604;52.496;13.456;2022-12-18T14:22:54;83.03;;;30.05;;
25758;SDS011;13604;52.496;13.456;2022-12-18T14:25:22;88.40;;;29.15;;
25758;SDS011;13604;52.496;13.456;2022-12-18T14:27:50;72.43;;;27.45;;
25758;SDS011;13604;52.496;13.456;2022-12-18T14:33:08;72.72;;;26.58;;
25758;SDS011;13604;52.496;13.456;2022-12-18T14:38:09;88.00;;;27.57;;
25758;SDS011;13604;52.496;13.456;2022-12-18T14:40:34;73.95;;;25.52;;
25758;SDS011;13604;52.496;13.456;2022-12-18T14:43:00;73.65;;;25.17;;
25758;SDS011;13604;52.496;13.456;2022-12-18T14:45:38;61.47;;;23.67;;
25758;SDS011;13604;52.496;13.456;2022-12-18T14:48:06;59.88;;;22.85;;
25758;SDS011;13604;52.496;13.456;2022-12-18T14:50:32;66.07;;;24.80;;
25758;SDS011;13604;52.496;13.456;2022-12-18T14:52:57;67.40;;;25.58;;
25758;SDS011;13604;52.496;13.456;2022-12-18T14:55:22;64.63;;;24.67;;
25758;SDS011;13604;52.496;13.456;2022-12-18T14:57:54;64.25;;;23.40;;
25758;SDS011;13604;52.496;13.456;2022-12-18T15:00:21;69.65;;;24.80;;
25758;SDS011;13604;52.496;13.456;2022-12-18T15:02:48;67.18;;;24.67;;
25758;SDS011;13604;52.496;13.456;2022-12-18T15:05:19;71.35;;;26.95;;
25758;SDS011;13604;52.496;13.456;2022-12-18T15:07:45;67.90;;;24.33;;
25758;SDS011;13604;52.496;13.456;2022-12-18T15:10:15;73.60;;;25.38;;
25758;SDS011;13604;52.496;13.456;2022-12-18T15:12:45;68.72;;;25.05;;
25758;SDS011;13604;52.496;13.456;2022-12-18T15:18:00;77.55;;;26.35;;
25758;SDS011;13604;52.496;13.456;2022-12-18T15:20:26;78.53;;;27.98;;